createdAt,value
2019-04-11T00:04:40.663Z,6.80
2019-04-11T00:09:47.818Z,6.70
2019-04-11T00:14:53.938Z,6.70
2019-04-11T00:20:00.003Z,6.70
2019-04-11T00:25:07.260Z,6.60
2019-04-11T00:30:13.130Z,6.50
2019-04-11T00:35:19.721Z,6.50
2019-04-11T00:40:25.398Z,6.50
2019-04-11T00:45:31.785Z,6.40
2019-04-11T00:50:37.416Z,6.40
2019-04-11T00:55:43.908Z,6.40
2019-04-11T01:06:10.047Z,6.40
2019-04-11T01:11:16.123Z,6.40
2019-04-11T01:16:40.963Z,6.40
2019-04-11T01:21:46.709Z,6.40
2019-04-11T01:26:52.289Z,6.40
2019-04-11T01:32:02.257Z,6.30
2019-04-11T01:37:07.840Z,6.30
2019-04-11T01:42:13.512Z,6.30
2019-04-11T01:47:27.414Z,6.20
2019-04-11T01:52:34.090Z,6.10
2019-04-11T01:57:40.278Z,6.00
2019-04-11T02:02:51.005Z,5.90
2019-04-11T02:07:56.777Z,5.90
2019-04-11T02:13:03.440Z,5.80
2019-04-11T02:18:09.348Z,5.80
2019-04-11T02:23:19.952Z,5.90
2019-04-11T02:28:25.837Z,5.80
2019-04-11T02:33:32.944Z,5.90
2019-04-11T02:38:39.090Z,6.00
2019-04-11T02:43:46.835Z,6.00
2019-04-11T02:48:54.071Z,6.00
2019-04-11T02:53:59.888Z,6.10
2019-04-11T02:59:06.083Z,6.10
2019-04-11T03:04:12.926Z,6.00
2019-04-11T03:09:19.751Z,6.00
2019-04-11T03:14:27.625Z,5.90
2019-04-11T03:20:06.981Z,5.80
2019-04-11T03:25:02.902Z,5.80
2019-04-11T03:30:14.683Z,5.70
2019-04-11T03:40:43.896Z,5.70
2019-04-11T03:45:51.369Z,5.60
2019-04-11T03:50:39.289Z,5.50
2019-04-11T03:55:45.528Z,5.50
2019-04-11T04:00:53.489Z,5.40
2019-04-11T04:05:59.966Z,5.40
2019-04-11T04:11:27.703Z,5.40
2019-04-11T04:16:48.287Z,5.40
2019-04-11T04:22:03.120Z,5.40
2019-04-11T04:27:10.250Z,5.30
2019-04-11T04:32:16.330Z,5.30
2019-04-11T04:37:24.815Z,5.30
2019-04-11T04:42:34.534Z,5.20
2019-04-11T04:47:46.541Z,5.20
2019-04-11T04:52:46.881Z,5.10
2019-04-11T04:57:53.232Z,5.20
2019-04-11T05:02:59.898Z,5.10
2019-04-11T05:08:06.199Z,5.00
2019-04-11T05:13:13.624Z,5.00
2019-04-11T05:18:20.987Z,4.90
2019-04-11T05:23:27.662Z,4.90
2019-04-11T05:28:33.349Z,4.90
2019-04-11T05:33:39.164Z,4.90
2019-04-11T05:38:45.027Z,4.80
2019-04-11T05:43:51.487Z,4.80
2019-04-11T05:49:09.285Z,4.80
2019-04-11T05:54:14.812Z,4.80
2019-04-11T05:59:23.942Z,4.80
2019-04-11T06:04:37.279Z,4.90
2019-04-11T06:09:46.264Z,4.80
2019-04-11T06:15:05.953Z,4.80
2019-04-11T06:20:29.667Z,4.90
2019-04-11T06:25:55.508Z,5.00
2019-04-11T06:31:20.192Z,5.10
2019-04-11T06:36:36.955Z,5.10
2019-04-11T06:42:05.778Z,5.20
2019-04-11T06:47:30.350Z,5.30
2019-04-11T06:52:36.987Z,5.40
2019-04-11T06:57:42.833Z,5.50
2019-04-11T07:02:55.158Z,5.60
2019-04-11T07:08:02.104Z,5.70
2019-04-11T07:13:16.398Z,5.80
2019-04-11T07:18:40.038Z,5.90
2019-04-11T07:24:03.573Z,6.00
2019-04-11T07:29:29.183Z,6.00
2019-04-11T07:34:53.115Z,6.10
2019-04-11T07:40:21.995Z,6.30
2019-04-11T07:45:34.266Z,6.40
2019-04-11T07:50:40.020Z,6.60
2019-04-11T07:55:46.590Z,6.90
2019-04-11T08:01:10.383Z,6.90
2019-04-11T08:06:34.784Z,7.10
2019-04-11T08:11:49.917Z,7.30
2019-04-11T08:17:27.126Z,7.40
2019-04-11T08:22:46.031Z,7.60
2019-04-11T08:28:00.085Z,7.90
2019-04-11T08:33:04.484Z,8.20
2019-04-11T08:38:16.587Z,8.50
2019-04-11T08:43:26.875Z,8.60
2019-04-11T08:48:35.150Z,8.80
2019-04-11T08:54:03.128Z,8.80
2019-04-11T08:59:29.385Z,9.00
2019-04-11T09:05:10.322Z,9.00
2019-04-11T09:10:28.440Z,9.10
2019-04-11T09:15:53.050Z,9.00
2019-04-11T09:21:16.187Z,9.10
2019-04-11T09:26:41.011Z,9.00
2019-04-11T09:32:05.974Z,9.10
2019-04-11T09:37:27.968Z,9.40
2019-04-11T09:42:51.375Z,9.60
2019-04-11T09:48:18.255Z,9.60
2019-04-11T09:53:23.601Z,9.50
2019-04-11T09:58:29.516Z,9.50
2019-04-11T10:03:35.180Z,9.70
2019-04-11T10:08:43.659Z,9.80
2019-04-11T10:13:55.472Z,9.60
2019-04-11T10:19:20.068Z,9.70
2019-04-11T10:24:37.030Z,10.00
2019-04-11T10:30:00.918Z,10.00
2019-04-11T10:35:26.070Z,10.00
2019-04-11T10:40:50.293Z,10.00
2019-04-11T10:46:17.936Z,10.00
2019-04-11T10:51:58.209Z,9.90
2019-04-11T10:57:22.534Z,10.00
2019-04-11T11:02:51.855Z,10.00
2019-04-11T11:08:03.143Z,10.10
2019-04-11T11:13:34.148Z,10.10
2019-04-11T11:19:31.176Z,10.20
2019-04-11T11:24:26.061Z,10.20
2019-04-11T11:29:51.563Z,10.20
2019-04-11T11:35:32.348Z,10.30
2019-04-11T11:40:54.244Z,10.30
2019-04-11T11:46:19.090Z,10.50
2019-04-11T11:51:58.073Z,10.50
2019-04-11T11:57:06.997Z,10.60
2019-04-11T12:02:18.260Z,10.50
2019-04-11T12:07:28.561Z,10.40
2019-04-11T12:13:06.650Z,10.50
2019-04-11T12:18:24.567Z,10.70
2019-04-11T12:24:06.512Z,10.80
2019-04-11T12:29:30.599Z,10.90
2019-04-11T12:34:55.740Z,10.90
2019-04-11T12:40:19.518Z,10.80
2019-04-11T12:45:49.783Z,11.00
2019-04-11T12:51:14.250Z,11.00
2019-04-11T12:56:37.238Z,11.10
2019-04-11T13:02:03.535Z,11.10
2019-04-11T13:07:34.730Z,11.20
2019-04-11T13:12:58.307Z,11.30
2019-04-11T13:18:35.302Z,11.30
2019-04-11T13:23:59.752Z,11.40
2019-04-11T13:29:14.760Z,11.60
2019-04-11T13:34:20.279Z,11.70
2019-04-11T13:39:25.880Z,11.80
2019-04-11T13:44:36.180Z,11.90
2019-04-11T13:49:47.215Z,11.90
2019-04-11T13:55:13.063Z,11.70
2019-04-11T14:00:36.436Z,11.50
2019-04-11T14:05:42.790Z,11.70
2019-04-11T14:11:04.526Z,11.70
2019-04-11T14:16:13.840Z,11.80
2019-04-11T14:21:20.758Z,11.90
2019-04-11T14:26:36.101Z,11.90
2019-04-11T14:31:50.924Z,11.90
2019-04-11T14:37:38.206Z,12.00
2019-04-11T14:43:08.804Z,12.00
2019-04-11T14:48:18.014Z,12.00
2019-04-11T14:53:36.915Z,12.00
2019-04-11T14:59:00.880Z,11.90
2019-04-11T15:04:34.540Z,12.00
2019-04-11T15:09:55.486Z,12.00
2019-04-11T15:15:20.125Z,12.00
2019-04-11T15:20:54.733Z,12.00
2019-04-11T15:26:15.128Z,12.10
2019-04-11T15:31:54.722Z,12.10
2019-04-11T15:37:22.280Z,12.10
2019-04-11T15:42:40.465Z,12.00
2019-04-11T15:47:58.386Z,12.00
2019-04-11T15:53:06.542Z,12.00
2019-04-11T15:58:12.775Z,11.90
2019-04-11T16:03:21.030Z,11.90
2019-04-11T16:08:43.415Z,12.10
2019-04-11T16:13:55.121Z,12.10
2019-04-11T16:19:29.039Z,12.00
2019-04-11T16:24:35.029Z,11.90
2019-04-11T16:29:50.788Z,11.80
2019-04-11T16:35:11.958Z,11.80
2019-04-11T16:40:53.490Z,11.80
2019-04-11T16:46:29.441Z,11.70
2019-04-11T16:51:35.426Z,11.60
2019-04-11T16:56:41.711Z,11.40
2019-04-11T17:01:53.419Z,11.40
2019-04-11T17:07:15.049Z,11.30
2019-04-11T17:12:20.876Z,11.30
2019-04-11T17:17:26.487Z,11.20
2019-04-11T17:22:31.993Z,11.10
2019-04-11T17:27:37.720Z,11.10
2019-04-11T17:32:43.310Z,10.90
2019-04-11T17:37:48.872Z,10.80
2019-04-11T17:42:54.644Z,10.70
2019-04-11T17:48:00.296Z,10.60
2019-04-11T17:53:06.807Z,10.50
2019-04-11T17:58:12.229Z,10.40
2019-04-11T18:03:17.742Z,10.20
2019-04-11T18:08:24.149Z,10.20
2019-04-11T18:13:31.557Z,10.10
2019-04-11T18:18:37.432Z,10.10
2019-04-11T18:23:43.114Z,10.00
2019-04-11T18:28:51.774Z,9.90
2019-04-11T18:33:55.883Z,9.80
2019-04-11T18:39:05.615Z,9.70
2019-04-11T18:44:09.858Z,9.60
2019-04-11T18:49:15.567Z,9.60
2019-04-11T18:54:21.317Z,9.50
2019-04-11T18:59:26.951Z,9.40
2019-04-11T19:04:33.932Z,9.40
2019-04-11T19:09:43.679Z,9.30
2019-04-11T19:14:47.553Z,9.10
2019-04-11T19:19:53.395Z,9.00
2019-04-11T19:24:58.976Z,9.00
2019-04-11T19:30:24.032Z,8.90
2019-04-11T19:35:30.460Z,8.90
2019-04-11T19:40:36.015Z,8.90
2019-04-11T19:45:41.724Z,8.80
2019-04-11T19:50:47.466Z,8.80
2019-04-11T19:56:10.897Z,8.70
2019-04-11T20:01:16.532Z,8.70
2019-04-11T20:06:22.303Z,8.60
2019-04-11T20:11:29.317Z,8.50
2019-04-11T20:16:41.410Z,8.50
2019-04-11T20:21:42.427Z,8.50
2019-04-11T20:26:50.355Z,8.50
2019-04-11T20:31:55.295Z,8.50
2019-04-11T20:37:00.853Z,8.40
2019-04-11T20:42:06.262Z,8.50
2019-04-11T20:47:11.809Z,8.40
2019-04-11T20:52:17.494Z,8.40
2019-04-11T20:57:25.944Z,8.50
2019-04-11T21:02:30.737Z,8.30
2019-04-11T21:07:39.087Z,8.30
2019-04-11T21:12:43.720Z,8.30
2019-04-11T21:17:49.430Z,8.30
2019-04-11T21:22:54.968Z,8.30
2019-04-11T21:28:03.083Z,8.20
2019-04-11T21:33:08.447Z,8.20
2019-04-11T21:38:14.026Z,8.20
2019-04-11T21:43:19.330Z,8.10
2019-04-11T21:48:25.157Z,8.10
2019-04-11T21:53:36.562Z,8.10
2019-04-11T21:58:37.995Z,8.00
2019-04-11T22:03:43.803Z,8.00
2019-04-11T22:08:49.988Z,8.00
2019-04-11T22:13:55.870Z,8.00
2019-04-11T22:19:01.516Z,8.00
2019-04-11T22:24:08.131Z,8.00
2019-04-11T22:29:13.853Z,7.90
2019-04-11T22:34:31.087Z,7.80
2019-04-11T22:39:36.553Z,7.80
2019-04-11T22:44:41.909Z,7.70
2019-04-11T22:49:47.511Z,7.60
2019-04-11T22:54:53.249Z,7.50
2019-04-11T22:59:58.951Z,7.40
2019-04-11T23:05:06.116Z,7.40
2019-04-11T23:10:11.907Z,7.30
2019-04-11T23:15:17.653Z,7.20
2019-04-11T23:20:23.280Z,7.20
2019-04-11T23:25:28.895Z,7.20
2019-04-11T23:30:34.628Z,7.20
2019-04-11T23:35:40.175Z,7.20
2019-04-11T23:40:45.826Z,7.10
2019-04-11T23:45:51.820Z,7.10
2019-04-11T23:50:57.512Z,7.10
2019-04-11T23:56:03.142Z,7.10
